createdAt,value
2019-03-22T00:00:31.389Z,47.00
2019-03-22T00:03:00.937Z,46.80
2019-03-22T00:05:30.589Z,46.60
2019-03-22T00:08:00.144Z,46.60
2019-03-22T00:10:29.705Z,46.40
2019-03-22T00:12:59.244Z,46.30
2019-03-22T00:15:28.889Z,46.40
2019-03-22T00:17:58.419Z,46.50
2019-03-22T00:20:27.977Z,46.40
2019-03-22T00:22:57.536Z,46.30
2019-03-22T00:25:27.105Z,46.30
2019-03-22T00:27:56.583Z,46.30
2019-03-22T00:30:26.156Z,46.30
2019-03-22T00:32:55.553Z,46.20
2019-03-22T00:35:25.029Z,46.10
2019-03-22T00:37:54.450Z,46.10
2019-03-22T00:40:23.916Z,46.30
2019-03-22T00:42:53.489Z,46.30
2019-03-22T00:45:22.940Z,46.20
2019-03-22T00:47:52.488Z,46.10
2019-03-22T00:50:22.053Z,46.00
2019-03-22T00:52:51.636Z,46.00
2019-03-22T00:55:21.209Z,45.80
2019-03-22T00:57:50.768Z,45.80
2019-03-22T01:00:20.357Z,45.80
2019-03-22T01:02:49.916Z,45.80
2019-03-22T01:05:19.489Z,45.60
2019-03-22T01:07:49.177Z,45.70
2019-03-22T01:10:18.747Z,45.50
2019-03-22T01:12:48.243Z,45.60
2019-03-22T01:15:17.896Z,45.60
2019-03-22T01:17:47.396Z,45.40
2019-03-22T01:20:16.958Z,45.40
2019-03-22T01:22:46.520Z,45.30
2019-03-22T01:25:16.077Z,44.70
2019-03-22T01:27:45.639Z,45.20
2019-03-22T01:30:15.367Z,45.20
2019-03-22T01:32:44.907Z,45.20
2019-03-22T01:35:14.677Z,45.10
2019-03-22T01:37:44.362Z,45.10
2019-03-22T01:40:14.680Z,45.00
2019-03-22T01:42:44.271Z,44.90
2019-03-22T01:45:14.731Z,44.90
2019-03-22T01:47:44.252Z,44.80
2019-03-22T01:50:14.340Z,44.80
2019-03-22T01:52:43.916Z,44.70
2019-03-22T01:55:13.577Z,44.70
2019-03-22T01:57:52.479Z,44.70
2019-03-22T02:00:15.318Z,44.60
2019-03-22T02:02:44.816Z,44.50
2019-03-22T02:05:15.189Z,44.50
2019-03-22T02:07:44.809Z,44.50
2019-03-22T02:10:14.380Z,44.40
2019-03-22T02:12:43.890Z,44.50
2019-03-22T02:15:13.981Z,44.40
2019-03-22T02:17:43.666Z,44.40
2019-03-22T02:20:13.954Z,44.30
2019-03-22T02:22:43.541Z,44.40
2019-03-22T02:25:13.754Z,44.30
2019-03-22T02:27:43.762Z,44.30
2019-03-22T02:30:13.971Z,44.20
2019-03-22T02:32:43.649Z,44.20
2019-03-22T02:35:27.730Z,44.20
2019-03-22T02:37:44.614Z,44.20
2019-03-22T02:40:14.202Z,44.10
2019-03-22T02:42:43.842Z,44.10
2019-03-22T02:45:14.279Z,44.00
2019-03-22T02:47:43.944Z,44.10
2019-03-22T02:50:18.784Z,44.00
2019-03-22T02:52:45.261Z,44.00
2019-03-22T02:55:15.028Z,43.90
2019-03-22T02:57:44.577Z,43.90
2019-03-22T03:00:14.572Z,43.90
2019-03-22T03:02:44.335Z,43.80
2019-03-22T03:05:14.514Z,43.80
2019-03-22T03:07:44.101Z,43.80
2019-03-22T03:10:14.602Z,43.80
2019-03-22T03:12:44.245Z,43.70
2019-03-22T03:15:14.541Z,43.70
2019-03-22T03:17:44.058Z,43.70
2019-03-22T03:20:14.070Z,43.60
2019-03-22T03:22:43.655Z,43.60
2019-03-22T03:25:13.788Z,43.60
2019-03-22T03:27:43.430Z,43.60
2019-03-22T03:30:14.742Z,43.60
2019-03-22T03:32:44.480Z,43.50
2019-03-22T03:35:14.366Z,43.50
2019-03-22T03:37:43.949Z,43.60
2019-03-22T03:40:13.734Z,43.50
2019-03-22T03:42:43.307Z,43.50
2019-03-22T03:45:29.960Z,43.40
2019-03-22T03:47:59.854Z,43.40
2019-03-22T03:50:29.409Z,43.40
2019-03-22T03:52:59.011Z,43.40
2019-03-22T03:55:28.707Z,43.40
2019-03-22T03:57:58.282Z,43.40
2019-03-22T04:00:27.848Z,43.40
2019-03-22T04:02:57.651Z,43.40
2019-03-22T04:05:27.210Z,43.30
2019-03-22T04:07:56.906Z,43.30
2019-03-22T04:10:26.617Z,43.30
2019-03-22T04:12:56.159Z,43.30
2019-03-22T04:15:27.153Z,42.70
2019-03-22T04:17:56.646Z,43.20
2019-03-22T04:20:26.276Z,43.20
2019-03-22T04:22:55.762Z,43.20
2019-03-22T04:25:25.357Z,43.10
2019-03-22T04:27:54.841Z,43.20
2019-03-22T04:30:24.337Z,43.20
2019-03-22T04:32:53.902Z,43.10
2019-03-22T04:35:23.421Z,43.10
2019-03-22T04:37:52.981Z,43.00
2019-03-22T04:40:27.344Z,43.10
2019-03-22T04:42:56.991Z,43.10
2019-03-22T04:45:28.264Z,43.00
2019-03-22T04:48:09.226Z,43.00
2019-03-22T04:50:41.847Z,42.90
2019-03-22T04:53:15.245Z,42.90
2019-03-22T04:55:48.233Z,42.90
2019-03-22T04:58:20.375Z,42.90
2019-03-22T05:00:51.176Z,42.90
2019-03-22T05:03:21.657Z,42.90
2019-03-22T05:05:52.053Z,42.90
2019-03-22T05:08:23.096Z,42.90
2019-03-22T05:10:54.371Z,42.80
2019-03-22T05:13:25.473Z,42.80
2019-03-22T05:15:56.173Z,42.90
2019-03-22T05:18:26.975Z,42.80
2019-03-22T05:20:56.672Z,42.70
2019-03-22T05:23:27.979Z,42.80
2019-03-22T05:25:59.453Z,42.70
2019-03-22T05:28:30.466Z,42.60
2019-03-22T05:31:36.379Z,42.70
2019-03-22T05:34:05.993Z,42.60
2019-03-22T05:36:35.506Z,42.60
2019-03-22T05:39:07.975Z,42.60
2019-03-22T05:41:37.741Z,42.60
2019-03-22T05:44:07.182Z,42.60
2019-03-22T05:46:36.748Z,42.60
2019-03-22T05:49:06.344Z,42.60
2019-03-22T05:51:35.933Z,42.50
2019-03-22T05:54:05.524Z,42.50
2019-03-22T05:56:35.121Z,42.50
2019-03-22T05:59:04.692Z,42.40
2019-03-22T06:01:34.369Z,42.30
2019-03-22T06:04:04.157Z,42.20
2019-03-22T06:06:33.745Z,42.20
2019-03-22T06:09:04.039Z,42.20
2019-03-22T06:11:33.625Z,42.20
2019-03-22T06:14:03.214Z,42.80
2019-03-22T06:16:32.809Z,42.30
2019-03-22T06:19:02.410Z,42.40
2019-03-22T06:21:32.029Z,42.30
2019-03-22T06:24:01.588Z,42.40
2019-03-22T06:26:31.173Z,42.40
2019-03-22T06:29:00.761Z,42.40
2019-03-22T06:31:30.361Z,42.90
2019-03-22T06:33:59.949Z,42.20
2019-03-22T06:36:29.554Z,42.20
2019-03-22T06:38:59.141Z,42.20
2019-03-22T06:41:28.766Z,42.20
2019-03-22T06:43:58.344Z,42.20
2019-03-22T06:46:27.949Z,42.20
2019-03-22T06:48:57.524Z,42.20
2019-03-22T06:51:27.113Z,42.20
2019-03-22T06:53:56.713Z,42.20
2019-03-22T06:56:26.294Z,42.20
2019-03-22T06:58:55.905Z,42.20
2019-03-22T07:01:25.493Z,42.20
2019-03-22T07:03:55.623Z,42.20
2019-03-22T07:06:25.088Z,42.10
2019-03-22T07:08:54.578Z,42.10
2019-03-22T07:11:24.136Z,42.20
2019-03-22T07:13:53.743Z,42.00
2019-03-22T07:16:23.156Z,41.90
2019-03-22T07:18:52.760Z,41.80
2019-03-22T07:21:22.360Z,41.80
2019-03-22T07:23:52.133Z,41.70
2019-03-22T07:26:21.713Z,41.70
2019-03-22T07:28:51.337Z,41.80
2019-03-22T07:31:21.006Z,41.80
2019-03-22T07:33:50.667Z,41.90
2019-03-22T07:36:20.241Z,41.90
2019-03-22T07:38:49.845Z,41.90
2019-03-22T07:41:19.430Z,41.90
2019-03-22T07:43:49.039Z,41.90
2019-03-22T07:46:18.626Z,41.90
2019-03-22T07:48:48.230Z,42.30
2019-03-22T07:51:17.811Z,42.10
2019-03-22T07:53:47.453Z,41.90
2019-03-22T07:56:17.053Z,41.90
2019-03-22T07:58:46.733Z,41.90
2019-03-22T08:01:16.325Z,41.90
2019-03-22T08:03:45.918Z,42.00
2019-03-22T08:06:15.536Z,42.20
2019-03-22T08:08:45.133Z,42.10
2019-03-22T08:11:14.809Z,42.20
2019-03-22T08:13:44.397Z,42.00
2019-03-22T08:16:14.010Z,42.20
2019-03-22T08:18:43.575Z,42.20
2019-03-22T08:21:13.158Z,42.30
2019-03-22T08:23:42.732Z,42.50
2019-03-22T08:26:12.379Z,42.50
2019-03-22T08:28:41.944Z,42.70
2019-03-22T08:31:11.512Z,43.10
2019-03-22T08:33:40.996Z,43.40
2019-03-22T08:36:10.463Z,43.60
2019-03-22T08:38:40.080Z,43.70
2019-03-22T08:41:09.644Z,43.80
2019-03-22T08:43:39.166Z,43.80
2019-03-22T08:46:08.791Z,43.80
2019-03-22T08:48:38.379Z,43.90
2019-03-22T08:51:08.011Z,43.90
2019-03-22T08:53:37.658Z,43.90
2019-03-22T08:56:07.246Z,43.90
2019-03-22T08:58:36.852Z,44.00
2019-03-22T09:01:06.441Z,43.90
2019-03-22T09:03:36.045Z,43.90
2019-03-22T09:06:07.794Z,44.20
2019-03-22T09:08:36.969Z,44.70
2019-03-22T09:11:06.528Z,45.10
2019-03-22T09:13:36.114Z,45.10
2019-03-22T09:16:05.670Z,45.10
2019-03-22T09:18:35.270Z,45.00
2019-03-22T09:21:05.033Z,45.00
2019-03-22T09:23:35.476Z,45.10
2019-03-22T09:26:05.142Z,45.10
2019-03-22T09:28:34.730Z,45.20
2019-03-22T09:31:10.188Z,45.20
2019-03-22T09:33:35.679Z,45.30
2019-03-22T09:36:05.244Z,45.50
2019-03-22T09:38:34.905Z,45.60
2019-03-22T09:41:04.678Z,45.70
2019-03-22T09:43:34.340Z,45.60
2019-03-22T09:46:03.934Z,45.30
2019-03-22T09:48:33.572Z,45.30
2019-03-22T09:51:03.246Z,45.30
2019-03-22T09:53:32.913Z,45.00
2019-03-22T09:56:02.492Z,44.80
2019-03-22T09:58:32.194Z,44.60
2019-03-22T10:01:01.859Z,44.50
2019-03-22T10:03:31.605Z,44.90
2019-03-22T10:06:01.233Z,44.80
2019-03-22T10:08:30.854Z,44.70
2019-03-22T10:11:00.446Z,44.40
2019-03-22T10:13:30.049Z,44.20
2019-03-22T10:16:00.017Z,44.00
2019-03-22T10:18:29.636Z,44.00
2019-03-22T10:20:59.319Z,44.10
2019-03-22T10:23:28.958Z,44.30
2019-03-22T10:25:58.597Z,44.30
2019-03-22T10:28:28.167Z,44.20
2019-03-22T10:30:57.710Z,44.10
2019-03-22T10:33:27.209Z,44.10
2019-03-22T10:35:56.801Z,44.10
2019-03-22T10:38:31.495Z,44.30
2019-03-22T10:40:57.737Z,45.10
2019-03-22T10:43:27.463Z,44.30
2019-03-22T10:45:57.359Z,44.50
2019-03-22T10:48:27.091Z,44.80
2019-03-22T10:50:56.661Z,45.00
2019-03-22T10:53:26.241Z,44.60
2019-03-22T10:55:55.860Z,43.10
2019-03-22T10:58:25.509Z,41.60
2019-03-22T11:00:55.120Z,40.70
2019-03-22T11:03:24.726Z,40.10
2019-03-22T11:05:54.382Z,41.70
2019-03-22T11:08:23.957Z,41.60
2019-03-22T11:10:53.552Z,42.70
2019-03-22T11:13:23.140Z,42.30
2019-03-22T11:15:52.726Z,42.30
2019-03-22T11:18:22.321Z,42.10
2019-03-22T11:20:51.922Z,42.30
2019-03-22T11:23:21.411Z,42.40
2019-03-22T11:25:51.001Z,42.50
2019-03-22T11:28:20.598Z,42.60
2019-03-22T11:30:50.169Z,42.50
2019-03-22T11:33:19.771Z,42.40
2019-03-22T11:35:49.361Z,42.40
2019-03-22T11:38:18.813Z,42.40
2019-03-22T11:40:48.267Z,42.40
2019-03-22T11:43:17.794Z,42.50
2019-03-22T11:45:47.308Z,42.60
2019-03-22T11:48:16.910Z,42.70
2019-03-22T11:50:46.489Z,42.60
2019-03-22T11:53:16.093Z,42.60
2019-03-22T11:55:45.640Z,42.60
2019-03-22T11:58:15.231Z,42.40
2019-03-22T12:00:44.833Z,42.40
2019-03-22T12:03:14.445Z,42.30
2019-03-22T12:05:44.038Z,42.30
2019-03-22T12:08:13.621Z,42.40
2019-03-22T12:10:43.233Z,42.30
2019-03-22T12:13:12.775Z,42.40
2019-03-22T12:15:42.366Z,42.40
2019-03-22T12:18:11.943Z,42.40
2019-03-22T12:20:41.550Z,42.50
2019-03-22T12:23:11.158Z,42.70
2019-03-22T12:25:40.765Z,44.60
2019-03-22T12:28:10.449Z,44.70
2019-03-22T12:30:40.105Z,45.20
2019-03-22T12:33:09.698Z,45.00
2019-03-22T12:35:39.361Z,45.10
2019-03-22T12:38:08.977Z,44.80
2019-03-22T12:40:38.585Z,45.20
2019-03-22T12:43:08.168Z,45.10
2019-03-22T12:45:37.752Z,45.20
2019-03-22T12:48:07.377Z,45.00
2019-03-22T12:50:36.957Z,44.80
2019-03-22T12:53:06.577Z,44.20
2019-03-22T12:55:36.169Z,43.90
2019-03-22T12:58:05.790Z,43.70
2019-03-22T13:00:35.409Z,43.60
2019-03-22T13:03:05.027Z,43.60
2019-03-22T13:05:34.608Z,43.70
2019-03-22T13:08:04.314Z,43.90
2019-03-22T13:10:33.988Z,44.60
2019-03-22T13:13:03.580Z,44.00
2019-03-22T13:15:33.145Z,44.00
2019-03-22T13:18:02.729Z,44.10
2019-03-22T13:20:32.279Z,43.80
2019-03-22T13:23:01.881Z,43.90
2019-03-22T13:25:31.445Z,44.10
2019-03-22T13:28:01.015Z,44.10
2019-03-22T13:30:34.961Z,44.20
2019-03-22T13:33:04.939Z,44.10
2019-03-22T13:35:34.536Z,43.90
2019-03-22T13:38:04.260Z,44.20
2019-03-22T13:40:33.916Z,44.30
2019-03-22T13:43:03.492Z,44.40
2019-03-22T13:45:33.485Z,44.40
2019-03-22T13:48:03.067Z,44.60
2019-03-22T13:50:32.648Z,44.90
2019-03-22T13:53:02.231Z,45.10
2019-03-22T13:55:31.848Z,45.20
2019-03-22T13:58:01.520Z,45.40
2019-03-22T14:00:31.128Z,45.40
2019-03-22T14:03:03.193Z,45.30
2019-03-22T14:05:32.046Z,45.40
2019-03-22T14:08:01.629Z,45.30
2019-03-22T14:10:32.699Z,45.20
2019-03-22T14:13:03.073Z,45.10
2019-03-22T14:15:32.668Z,45.10
2019-03-22T14:18:02.247Z,45.10
2019-03-22T14:20:31.966Z,44.50
2019-03-22T14:23:01.562Z,44.20
2019-03-22T14:25:31.161Z,44.30
2019-03-22T14:28:00.754Z,44.20
2019-03-22T14:30:30.349Z,44.30
2019-03-22T14:32:59.949Z,44.20
2019-03-22T14:35:29.547Z,44.00
2019-03-22T14:37:59.141Z,43.80
2019-03-22T14:40:28.739Z,43.80
2019-03-22T14:42:58.329Z,43.70
2019-03-22T14:45:27.998Z,43.70
2019-03-22T14:47:57.609Z,43.80
2019-03-22T14:50:27.182Z,43.70
2019-03-22T14:52:56.803Z,43.80
2019-03-22T14:55:26.377Z,43.60
2019-03-22T14:57:55.974Z,43.50
2019-03-22T15:00:25.581Z,43.50
2019-03-22T15:02:55.194Z,43.40
2019-03-22T15:05:24.805Z,43.20
2019-03-22T15:07:54.300Z,43.10
2019-03-22T15:10:23.910Z,43.00
2019-03-22T15:12:53.579Z,43.10
2019-03-22T15:15:48.087Z,43.70
2019-03-22T15:18:32.233Z,43.00
2019-03-22T15:21:19.771Z,42.90
2019-03-22T15:24:10.146Z,42.90
2019-03-22T15:27:04.862Z,42.80
2019-03-22T15:30:10.710Z,42.70
2019-03-22T15:33:01.840Z,42.60
2019-03-22T15:35:44.189Z,42.50
2019-03-22T15:38:36.120Z,42.30
2019-03-22T15:41:05.950Z,43.00
2019-03-22T15:43:35.458Z,42.30
2019-03-22T15:46:05.065Z,42.10
2019-03-22T15:48:34.647Z,42.00
2019-03-22T15:51:04.254Z,42.00
2019-03-22T15:53:35.092Z,42.10
2019-03-22T15:56:04.716Z,42.60
2019-03-22T15:58:34.334Z,41.80
2019-03-22T16:01:04.338Z,41.80
2019-03-22T16:03:43.819Z,41.80
2019-03-22T16:06:05.386Z,41.90
2019-03-22T16:08:34.996Z,42.00
2019-03-22T16:11:04.549Z,42.00
2019-03-22T16:13:34.162Z,42.00
2019-03-22T16:16:03.759Z,42.00
2019-03-22T16:18:33.365Z,42.00
2019-03-22T16:21:02.953Z,42.00
2019-03-22T16:23:32.610Z,42.00
2019-03-22T16:26:02.213Z,42.10
2019-03-22T16:28:31.822Z,42.20
2019-03-22T16:31:01.414Z,42.20
2019-03-22T16:33:31.018Z,42.20
2019-03-22T16:36:00.592Z,42.10
2019-03-22T16:38:30.206Z,42.70
2019-03-22T16:40:59.798Z,42.10
2019-03-22T16:43:29.390Z,42.00
2019-03-22T16:45:58.986Z,42.00
2019-03-22T16:48:28.573Z,42.00
2019-03-22T16:50:58.179Z,42.00
2019-03-22T16:53:27.802Z,42.10
2019-03-22T16:55:57.380Z,42.10
2019-03-22T16:58:26.967Z,42.00
2019-03-22T17:00:56.569Z,42.10
2019-03-22T17:03:26.257Z,41.90
2019-03-22T17:05:55.840Z,41.90
2019-03-22T17:08:25.445Z,42.00
2019-03-22T17:10:55.045Z,42.10
2019-03-22T17:13:24.637Z,42.00
2019-03-22T17:15:54.226Z,42.00
2019-03-22T17:18:24.685Z,42.10
2019-03-22T17:20:54.269Z,42.00
2019-03-22T17:23:23.748Z,42.00
2019-03-22T17:25:53.344Z,42.10
2019-03-22T17:28:22.943Z,41.80
2019-03-22T17:30:52.537Z,41.80
2019-03-22T17:33:22.107Z,41.90
2019-03-22T17:35:51.696Z,41.80
2019-03-22T17:38:21.281Z,41.90
2019-03-22T17:40:50.885Z,41.80
2019-03-22T17:43:20.461Z,41.80
2019-03-22T17:45:50.061Z,41.70
2019-03-22T17:48:19.657Z,41.70
2019-03-22T17:50:49.233Z,41.70
2019-03-22T17:53:18.824Z,41.70
2019-03-22T17:55:48.441Z,41.80
2019-03-22T17:58:18.089Z,41.70
2019-03-22T18:00:47.991Z,41.80
2019-03-22T18:03:17.646Z,41.70
2019-03-22T18:05:47.419Z,41.70
2019-03-22T18:08:17.009Z,41.60
2019-03-22T18:10:46.605Z,41.60
2019-03-22T18:13:16.233Z,42.20
2019-03-22T18:15:45.842Z,41.60
2019-03-22T18:18:15.445Z,41.50
2019-03-22T18:20:44.995Z,41.30
2019-03-22T18:23:14.408Z,41.30
2019-03-22T18:25:44.021Z,41.40
2019-03-22T18:28:13.604Z,41.30
2019-03-22T18:30:43.178Z,41.30
2019-03-22T18:33:12.760Z,41.30
2019-03-22T18:35:42.235Z,41.20
2019-03-22T18:38:11.729Z,41.20
2019-03-22T18:40:41.276Z,41.20
2019-03-22T18:43:10.838Z,41.10
2019-03-22T18:45:40.420Z,41.00
2019-03-22T18:48:09.822Z,41.00
2019-03-22T18:50:39.283Z,40.90
2019-03-22T18:53:08.852Z,40.90
2019-03-22T18:55:38.469Z,40.90
2019-03-22T18:58:08.042Z,40.90
2019-03-22T19:00:37.632Z,41.20
2019-03-22T19:03:07.242Z,40.90
2019-03-22T19:05:36.816Z,40.90
2019-03-22T19:08:06.393Z,40.90
2019-03-22T19:10:35.900Z,41.00
2019-03-22T19:13:05.440Z,41.00
2019-03-22T19:15:35.004Z,41.00
2019-03-22T19:18:04.657Z,41.10
2019-03-22T19:20:34.270Z,41.10
2019-03-22T19:23:03.860Z,41.20
2019-03-22T19:25:33.449Z,41.20
2019-03-22T19:28:03.042Z,41.20
2019-03-22T19:30:32.649Z,41.40
2019-03-22T19:33:02.131Z,41.50
2019-03-22T19:35:31.640Z,41.90
2019-03-22T19:38:01.204Z,41.50
2019-03-22T19:40:30.797Z,41.40
2019-03-22T19:43:00.353Z,41.50
2019-03-22T19:45:29.932Z,41.40
2019-03-22T19:47:59.492Z,41.40
2019-03-22T19:50:29.076Z,41.60
2019-03-22T19:52:59.502Z,41.70
2019-03-22T19:55:29.997Z,41.70
2019-03-22T19:58:00.583Z,41.70
2019-03-22T20:00:31.103Z,41.80
2019-03-22T20:03:01.736Z,41.90
2019-03-22T20:05:33.407Z,41.90
2019-03-22T20:08:04.461Z,41.90
2019-03-22T20:10:36.290Z,42.00
2019-03-22T20:13:06.672Z,42.00
2019-03-22T20:15:37.164Z,42.00
2019-03-22T20:18:07.848Z,42.00
2019-03-22T20:20:38.408Z,42.00
2019-03-22T20:23:09.004Z,42.00
2019-03-22T20:25:38.697Z,42.00
2019-03-22T20:28:08.358Z,42.10
2019-03-22T20:30:37.963Z,42.00
2019-03-22T20:33:07.676Z,42.10
2019-03-22T20:35:37.260Z,42.00
2019-03-22T20:38:06.845Z,42.00
2019-03-22T20:40:36.428Z,42.00
2019-03-22T20:43:06.013Z,42.00
2019-03-22T20:45:35.601Z,42.10
2019-03-22T20:48:05.176Z,42.00
2019-03-22T20:50:35.934Z,42.00
2019-03-22T20:53:05.933Z,42.00
2019-03-22T20:55:35.520Z,42.00
2019-03-22T20:58:05.090Z,42.00
2019-03-22T21:00:34.690Z,42.10
2019-03-22T21:03:04.284Z,42.10
2019-03-22T21:05:33.856Z,42.10
2019-03-22T21:08:03.445Z,42.30
2019-03-22T21:10:32.937Z,42.40
2019-03-22T21:13:02.548Z,42.50
2019-03-22T21:15:32.067Z,42.50
2019-03-22T21:18:01.648Z,42.60
2019-03-22T21:20:31.253Z,42.70
2019-03-22T21:23:00.825Z,42.80
2019-03-22T21:25:30.412Z,42.80
2019-03-22T21:27:59.992Z,42.80
2019-03-22T21:30:30.609Z,43.00
2019-03-22T21:33:01.062Z,43.00
2019-03-22T21:35:37.169Z,43.10
2019-03-22T21:38:10.760Z,43.20
2019-03-22T21:40:36.127Z,43.20
2019-03-22T21:43:06.476Z,43.30
2019-03-22T21:45:36.908Z,43.30
2019-03-22T21:48:07.286Z,43.40
2019-03-22T21:50:37.769Z,43.40
2019-03-22T21:53:08.081Z,43.40
2019-03-22T21:55:37.962Z,43.40
2019-03-22T21:58:07.533Z,43.40
2019-03-22T22:00:37.098Z,43.40
2019-03-22T22:03:06.708Z,43.40
2019-03-22T22:05:36.280Z,43.50
2019-03-22T22:08:05.869Z,43.40
2019-03-22T22:10:35.445Z,43.50
2019-03-22T22:13:05.068Z,43.50
2019-03-22T22:15:34.643Z,43.50
2019-03-22T22:18:04.233Z,43.60
2019-03-22T22:20:33.800Z,43.50
2019-03-22T22:23:03.577Z,43.60
2019-03-22T22:25:33.163Z,43.60
2019-03-22T22:28:02.754Z,43.60
2019-03-22T22:30:32.354Z,43.60
2019-03-22T22:33:01.955Z,43.60
2019-03-22T22:35:31.553Z,43.60
2019-03-22T22:38:01.124Z,43.60
2019-03-22T22:40:30.736Z,43.50
2019-03-22T22:43:00.233Z,43.50
2019-03-22T22:45:29.825Z,43.60
2019-03-22T22:47:59.414Z,43.60
2019-03-22T22:50:29.028Z,43.60
2019-03-22T22:52:59.650Z,43.60
2019-03-22T22:55:29.997Z,43.70
2019-03-22T22:58:00.442Z,43.70
2019-03-22T23:00:31.086Z,43.60
2019-03-22T23:03:01.557Z,43.60
2019-03-22T23:05:32.253Z,43.60
2019-03-22T23:08:02.608Z,43.70
2019-03-22T23:10:33.145Z,43.70
2019-03-22T23:13:03.624Z,43.70
2019-03-22T23:15:33.927Z,43.70
2019-03-22T23:18:04.393Z,43.80
2019-03-22T23:20:34.797Z,43.90
2019-03-22T23:23:05.335Z,44.50
2019-03-22T23:25:36.059Z,43.80
2019-03-22T23:28:06.600Z,43.80
2019-03-22T23:30:36.252Z,43.80
2019-03-22T23:33:05.849Z,43.80
2019-03-22T23:35:35.448Z,44.00
2019-03-22T23:38:05.009Z,43.80
2019-03-22T23:40:34.614Z,43.90
2019-03-22T23:43:04.206Z,43.90
2019-03-22T23:45:33.768Z,43.90
2019-03-22T23:48:03.351Z,43.90
2019-03-22T23:50:32.836Z,44.00
2019-03-22T23:53:02.516Z,43.90
2019-03-22T23:55:32.093Z,43.80
2019-03-22T23:58:01.691Z,43.70
